»·PEaware :: N455TP KVCV-KLAS

N455TP :: KVCV-KLAS

FLIGHT INFORMATION

Flight Status: Arrived
Operator: Privately registered:
United States
More flights under this callsign
Pilot: Adam R. (28816)
Aircraft: Cessna 700 Citation Longitude
(C700)
More flights by this aircraft type
Origin: KVCV Socal Logistics
United States
Destination: KLAS McCarran Intl
United States
More flights between these airports :: More routes between these airports
Route: +CLARR KEPEC6
File this flight plan on PilotEdge
Remarks:
Altitude:
(Current/Filed)
21,000ft
Speed:
(Current/Filed)
475kts
Departed: 23-Oct-20 03:23 PM
Arrived: 23-Oct-20 04:04 PM
Distance/Time
Traveled:
6735nm/0:40
Distance/Time
To Go:
Arrived

Flight Plot

Page will automatically refresh every two minutes.

Flight plan parsing failed; only flown route is shown


Map Options




Map Legend


Flown Route
Filed Route
Departure Airport
Arrival Airport
Navaid (VOR, NDB)
Fix

Horizontal Profiles

Position Reports

Time Latitude Longitude Heading Altitude Ground
Speed
23-Oct-20 15:05 34.590186 -117.374742 47 2865ft 0kts
23-Oct-20 15:06 34.590186 -117.374742 47 2865ft 0kts
23-Oct-20 15:07 34.590186 -117.374742 47 2865ft 0kts
23-Oct-20 15:08 34.590186 -117.374742 47 2865ft 0kts
23-Oct-20 15:09 34.590186 -117.374742 47 2865ft 0kts
23-Oct-20 15:10 34.590186 -117.374742 47 2865ft 0kts
23-Oct-20 15:11 34.590186 -117.374742 47 2865ft 0kts
23-Oct-20 15:12 34.590186 -117.374742 47 2865ft 0kts
23-Oct-20 15:13 34.590186 -117.374742 47 2865ft 0kts
23-Oct-20 15:14 34.589934 -117.374817 336 2865ft 2kts
23-Oct-20 15:15 34.589871 -117.374771 317 2865ft 0kts
23-Oct-20 15:16 34.590133 -117.375070 316 2865ft 9kts
23-Oct-20 15:17 34.593273 -117.372054 89 2859ft 16kts
23-Oct-20 15:18 34.594240 -117.367765 10 2855ft 11kts
23-Oct-20 15:19 34.598197 -117.366828 11 2850ft 17kts
23-Oct-20 15:20 34.598969 -117.366642 7 2848ft 0kts
23-Oct-20 15:21 34.598969 -117.366642 7 2848ft 0kts
23-Oct-20 15:22 34.597328 -117.370423 224 2858ft 87kts
23-Oct-20 15:23 34.568130 -117.430703 259 5538ft 258kts
23-Oct-20 15:24 34.586537 -117.502849 351 7469ft 253kts
23-Oct-20 15:25 34.646017 -117.453580 59 12093ft 302kts
23-Oct-20 15:26 34.689180 -117.367926 49 14624ft 300kts
23-Oct-20 15:27 34.740470 -117.281831 51 19639ft 330kts
23-Oct-20 15:28 34.803370 -117.176368 52 20905ft 445kts
23-Oct-20 15:29 34.883291 -117.041855 53 20961ft 499kts
23-Oct-20 15:30 34.964386 -116.904920 53 20960ft 498kts
23-Oct-20 15:31 35.045308 -116.767974 53 20937ft 498kts
23-Oct-20 15:32 35.126471 -116.629683 53 20953ft 500kts
23-Oct-20 15:33 35.207385 -116.491319 53 20933ft 500kts
23-Oct-20 15:34 35.288258 -116.352484 53 20933ft 501kts
23-Oct-20 15:35 35.368843 -116.213592 53 20923ft 502kts
23-Oct-20 15:36 35.449345 -116.074314 53 19687ft 496kts
23-Oct-20 15:38 35.527614 -115.938378 53 17641ft 479kts
23-Oct-20 15:39 35.599795 -115.812541 54 15527ft 396kts
23-Oct-20 15:40 35.653952 -115.717733 55 13329ft 322kts
23-Oct-20 15:41 35.710552 -115.635624 42 12913ft 315kts
23-Oct-20 15:42 35.780627 -115.574977 15 12948ft 312kts
23-Oct-20 15:43 35.866120 -115.569941 3 13239ft 308kts
23-Oct-20 15:44 35.952205 -115.559745 21 14334ft 322kts
23-Oct-20 15:45 36.001953 -115.472896 76 11586ft 312kts
23-Oct-20 15:46 36.025762 -115.374088 82 10485ft 298kts
23-Oct-20 15:47 36.023296 -115.274831 96 9092ft 284kts
23-Oct-20 15:48 36.016829 -115.178110 94 8635ft 284kts
23-Oct-20 15:49 36.010192 -115.083247 94 7978ft 276kts
23-Oct-20 15:50 36.004766 -114.988552 94 7966ft 277kts
23-Oct-20 15:51 35.999068 -114.893682 94 7965ft 278kts
23-Oct-20 15:52 35.993183 -114.798662 95 7964ft 278kts
23-Oct-20 15:53 35.986900 -114.703472 95 7968ft 279kts
23-Oct-20 15:53 35.989638 -114.625671 53 7995ft 282kts
23-Oct-20 15:55 36.064581 -114.629845 294 7984ft 279kts
23-Oct-20 15:55 36.072010 -114.707158 275 7962ft 258kts
23-Oct-20 15:57 36.076496 -114.809462 270 7019ft 255kts
23-Oct-20 15:57 36.076672 -114.881790 272 5890ft 250kts
23-Oct-20 15:59 36.076628 -114.974953 271 4417ft 200kts
23-Oct-20 15:59 36.076552 -115.025687 272 3648ft 160kts
23-Oct-20 16:00 36.076439 -115.080389 270 2801ft 160kts
23-Oct-20 16:01 36.076409 -115.134011 270 2080ft 124kts
23-Oct-20 16:02 36.076400 -115.153126 270 2148ft 54kts
23-Oct-20 16:03 36.076888 -115.171171 340 2180ft 18kts
23-Oct-20 16:04 36.081345 -115.169469 331 2173ft 10kts
23-Oct-20 16:05 36.081925 -115.171067 359 2172ft 0kts
23-Oct-20 16:06 0.000407 0.013975 0 3ft 0kts

Navigation Log

Ident Type
Flight plan parsing failed, navigation log unavailable